Time;durP1;ratioP1;P1;durP2;ratioP2;P2;SDS_P1;SDS_P2;PMS_P1;PMS_P2;Temp;Humidity;BMP_temperature;BMP_pressure;BME280_temperature;BME280_humidity;BME280_pressure;Samples;Min_cycle;Max_cycle;Signal;HPM_P1;HPM_P2
2021/07/08 00:02:18;;;;;;;6.53;1.90;;;17.90;99.90;;;;;;5032536;28;20438;-86
2021/07/08 00:05:08;;;;;;;6.47;2.28;;;17.90;99.90;;;;;;5033156;28;20168;-85
2021/07/08 00:07:58;;;;;;;4.32;2.30;;;17.90;99.90;;;;;;5033562;28;20056;-86
2021/07/08 00:10:47;;;;;;;3.80;1.80;;;17.90;99.90;;;;;;5033410;28;20057;-85
2021/07/08 00:13:34;;;;;;;3.40;1.80;;;17.80;99.90;;;;;;5057625;28;20137;-85
2021/07/08 00:16:22;;;;;;;4.43;2.00;;;17.90;99.90;;;;;;5058992;28;20041;-85
2021/07/08 00:19:09;;;;;;;3.58;1.75;;;17.90;99.90;;;;;;5059349;28;20693;-86
2021/07/08 00:21:56;;;;;;;4.25;2.00;;;17.90;99.90;;;;;;5073234;28;20048;-85
2021/07/08 00:24:45;;;;;;;5.10;2.30;;;17.90;99.90;;;;;;5058293;28;20036;-85
2021/07/08 00:27:32;;;;;;;5.72;2.35;;;17.90;99.90;;;;;;5056993;28;20048;-85
2021/07/08 00:30:20;;;;;;;6.50;2.20;;;17.90;99.90;;;;;;5073293;28;20127;-85
2021/07/08 00:33:07;;;;;;;4.28;1.80;;;17.90;99.90;;;;;;5051005;28;20112;-85
2021/07/08 00:35:55;;;;;;;6.80;2.13;;;17.90;99.90;;;;;;5052153;28;20045;-86
2021/07/08 00:38:42;;;;;;;3.40;1.70;;;17.80;99.90;;;;;;5053145;28;20051;-86
2021/07/08 00:41:30;;;;;;;5.15;1.95;;;17.80;99.90;;;;;;5053279;28;20049;-85
2021/07/08 00:44:17;;;;;;;3.45;1.83;;;17.80;99.90;;;;;;5052045;28;20052;-85
2021/07/08 00:47:06;;;;;;;4.22;1.88;;;17.70;99.90;;;;;;5052586;28;20140;-86
2021/07/08 00:49:53;;;;;;;5.53;2.03;;;17.70;99.90;;;;;;5053605;28;20132;-86
2021/07/08 00:52:40;;;;;;;2.72;1.85;;;17.70;99.90;;;;;;5053178;28;20128;-85
2021/07/08 00:55:27;;;;;;;6.25;1.95;;;17.80;99.90;;;;;;5053073;28;20179;-85
2021/07/08 00:58:17;;;;;;;5.43;2.38;;;17.60;99.90;;;;;;5052225;28;20075;-85
2021/07/08 01:01:04;;;;;;;4.90;2.08;;;17.50;99.90;;;;;;5053352;28;20041;-86
2021/07/08 01:03:52;;;;;;;3.55;1.92;;;17.60;99.90;;;;;;5052009;28;20426;-86
2021/07/08 01:06:43;;;;;;;6.13;2.30;;;17.60;99.90;;;;;;5050600;28;20549;-85
2021/07/08 01:09:31;;;;;;;7.30;2.08;;;17.70;99.90;;;;;;5054648;28;20085;-86
2021/07/08 01:12:18;;;;;;;6.10;2.40;;;17.60;99.90;;;;;;5056104;28;20049;-87
2021/07/08 01:15:09;;;;;;;7.13;2.60;;;17.70;99.90;;;;;;5056477;28;20049;-88
2021/07/08 01:17:56;;;;;;;4.60;2.30;;;17.50;99.90;;;;;;5056724;28;20045;-86
2021/07/08 01:20:44;;;;;;;4.35;2.10;;;17.40;99.90;;;;;;5041879;28;20059;-86
2021/07/08 01:23:32;;;;;;;7.10;3.28;;;17.30;99.90;;;;;;5055663;28;20075;-86
2021/07/08 01:26:20;;;;;;;7.80;2.70;;;17.40;99.90;;;;;;5057065;28;20041;-86
2021/07/08 01:29:07;;;;;;;5.25;2.83;;;17.30;99.90;;;;;;5056912;28;20516;-88
2021/07/08 01:31:55;;;;;;;4.55;2.58;;;17.30;99.90;;;;;;5053880;28;20126;-87
2021/07/08 01:34:42;;;;;;;6.25;2.78;;;17.40;99.90;;;;;;5054503;28;20051;-86
2021/07/08 01:37:29;;;;;;;5.72;2.58;;;17.40;99.90;;;;;;5056701;28;20132;-87
2021/07/08 01:40:18;;;;;;;5.85;2.50;;;17.40;99.90;;;;;;5056810;28;20049;-86
2021/07/08 01:43:05;;;;;;;4.75;2.58;;;17.50;99.90;;;;;;5056720;28;20053;-85
2021/07/08 01:45:52;;;;;;;4.03;2.20;;;17.40;99.90;;;;;;5056440;28;20121;-86
2021/07/08 01:48:40;;;;;;;5.63;2.70;;;17.50;99.90;;;;;;5056216;28;20045;-87
2021/07/08 01:51:29;;;;;;;5.57;2.17;;;17.50;99.90;;;;;;5042826;28;20120;-87
2021/07/08 01:54:16;;;;;;;5.85;2.40;;;17.50;99.90;;;;;;5056375;28;20049;-86
2021/07/08 01:57:05;;;;;;;6.18;2.45;;;17.40;99.90;;;;;;5055874;28;20049;-85
2021/07/08 01:59:52;;;;;;;5.13;2.53;;;17.40;99.90;;;;;;5058595;28;20045;-86
2021/07/08 02:02:40;;;;;;;6.32;2.90;;;17.40;99.90;;;;;;5055759;28;20056;-87
2021/07/08 02:05:27;;;;;;;6.68;2.60;;;17.40;99.90;;;;;;5053652;28;20411;-85
2021/07/08 02:08:14;;;;;;;6.60;2.60;;;17.50;99.90;;;;;;5050940;28;20049;-85
2021/07/08 02:11:01;;;;;;;7.40;2.80;;;17.50;99.90;;;;;;5052173;28;20047;-85
2021/07/08 02:13:50;;;;;;;5.70;2.78;;;17.50;99.90;;;;;;5031756;28;20049;-86
2021/07/08 02:16:38;;;;;;;9.25;3.08;;;17.50;99.90;;;;;;5031102;28;20116;-85
2021/07/08 02:19:25;;;;;;;7.05;2.50;;;17.60;99.90;;;;;;5030220;28;20044;-85
2021/07/08 02:22:12;;;;;;;6.97;2.83;;;17.60;99.90;;;;;;5031473;28;20422;-85
2021/07/08 02:24:59;;;;;;;7.63;3.35;;;17.60;99.90;;;;;;5031004;28;20037;-86
2021/07/08 02:27:47;;;;;;;7.28;3.05;;;17.60;99.90;;;;;;5030354;28;20049;-85
2021/07/08 02:30:35;;;;;;;9.50;3.03;;;17.60;99.90;;;;;;5030086;28;20507;-85
2021/07/08 02:33:24;;;;;;;5.95;3.15;;;17.70;99.90;;;;;;5045900;28;20049;-85
2021/07/08 02:36:11;;;;;;;4.85;2.88;;;17.50;99.90;;;;;;5050438;28;20045;-86
2021/07/08 02:38:58;;;;;;;7.95;3.25;;;17.60;99.90;;;;;;5050799;28;20196;-85
2021/07/08 02:41:46;;;;;;;6.90;3.13;;;17.60;99.90;;;;;;5051067;28;20049;-85
2021/07/08 02:44:33;;;;;;;7.50;3.08;;;17.50;99.90;;;;;;5049901;28;20131;-86
2021/07/08 02:47:22;;;;;;;4.95;2.25;;;17.60;99.90;;;;;;5051926;28;20128;-85
2021/07/08 02:50:11;;;;;;;6.78;2.97;;;17.40;99.90;;;;;;5052830;28;20049;-85
2021/07/08 02:52:58;;;;;;;6.07;2.60;;;17.60;99.90;;;;;;5053571;28;20045;-85
2021/07/08 02:55:46;;;;;;;8.10;3.05;;;17.60;99.90;;;;;;5055839;28;20652;-85
2021/07/08 02:58:33;;;;;;;8.15;3.00;;;17.60;99.90;;;;;;5054373;28;20148;-86
2021/07/08 03:01:20;;;;;;;9.15;3.40;;;17.50;99.90;;;;;;5093701;28;20496;-85
2021/07/08 03:04:08;;;;;;;5.63;3.38;;;17.50;99.90;;;;;;5080684;28;20056;-84
2021/07/08 03:06:55;;;;;;;5.65;3.10;;;17.40;99.90;;;;;;5079731;28;20127;-85
2021/07/08 03:09:43;;;;;;;9.02;3.35;;;17.50;99.90;;;;;;5079684;28;20055;-86
2021/07/08 03:12:30;;;;;;;6.97;3.03;;;17.50;99.90;;;;;;5080238;28;20066;-86
2021/07/08 03:15:17;;;;;;;9.77;3.10;;;17.60;99.90;;;;;;5080185;28;20113;-86
2021/07/08 03:18:05;;;;;;;5.70;3.03;;;17.60;99.90;;;;;;5078862;28;20044;-86
2021/07/08 03:20:53;;;;;;;10.40;3.33;;;17.60;99.90;;;;;;5079190;28;20042;-86
2021/07/08 03:23:40;;;;;;;6.40;3.15;;;17.70;99.90;;;;;;5079500;28;20145;-85
2021/07/08 03:26:27;;;;;;;6.20;2.97;;;17.70;99.90;;;;;;5095169;28;20040;-85
2021/07/08 03:29:14;;;;;;;6.53;3.05;;;17.60;99.90;;;;;;5079637;28;20431;-86
2021/07/08 03:32:02;;;;;;;7.60;2.78;;;17.60;99.90;;;;;;5079924;28;20115;-86
2021/07/08 03:34:49;;;;;;;7.90;2.97;;;17.60;99.90;;;;;;5080590;28;20048;-85
2021/07/08 03:37:38;;;;;;;6.30;3.20;;;17.60;99.90;;;;;;5079229;28;20044;-85
2021/07/08 03:40:27;;;;;;;6.63;2.80;;;17.50;99.90;;;;;;5095630;28;20093;-85
2021/07/08 03:43:14;;;;;;;5.80;2.53;;;17.40;99.90;;;;;;5080303;28;20105;-86
2021/07/08 03:46:01;;;;;;;5.68;3.15;;;17.40;99.90;;;;;;5080392;28;20040;-85
2021/07/08 03:48:48;;;;;;;5.47;2.78;;;17.50;99.90;;;;;;5080081;28;20055;-85
2021/07/08 03:51:35;;;;;;;8.10;2.95;;;17.50;99.90;;;;;;5078679;28;20055;-85
2021/07/08 03:54:24;;;;;;;5.45;2.60;;;17.40;99.90;;;;;;5079148;28;20048;-85
2021/07/08 03:57:11;;;;;;;6.57;2.90;;;17.40;99.90;;;;;;5079602;28;20048;-86
2021/07/08 03:59:58;;;;;;;4.75;2.80;;;17.40;99.90;;;;;;5078909;28;20122;-85
2021/07/08 04:02:45;;;;;;;5.65;2.92;;;17.40;99.90;;;;;;5092373;28;20054;-85
2021/07/08 04:05:33;;;;;;;5.57;2.80;;;17.40;99.90;;;;;;5080361;28;20047;-85
2021/07/08 04:08:20;;;;;;;8.27;2.72;;;17.30;99.90;;;;;;5093715;28;20070;-85
2021/07/08 04:11:09;;;;;;;5.22;2.70;;;17.30;99.90;;;;;;5079983;28;20058;-85
2021/07/08 04:13:56;;;;;;;8.68;3.33;;;17.40;99.90;;;;;;5060171;28;20549;-86
2021/07/08 04:16:43;;;;;;;7.30;3.08;;;17.30;99.90;;;;;;5059294;28;20044;-85
2021/07/08 04:19:30;;;;;;;6.07;3.13;;;17.30;99.90;;;;;;5072584;28;20048;-85
2021/07/08 04:22:17;;;;;;;6.50;2.83;;;17.40;99.90;;;;;;5073612;28;20094;-85
2021/07/08 04:25:07;;;;;;;5.68;2.53;;;17.40;99.90;;;;;;5058496;28;20055;-85
2021/07/08 04:27:55;;;;;;;6.65;2.97;;;17.40;99.90;;;;;;5058810;28;20444;-85
2021/07/08 04:30:43;;;;;;;6.55;2.92;;;17.40;99.90;;;;;;5058744;28;20576;-86
2021/07/08 04:33:39;;;;;;;5.30;2.65;;;17.40;99.90;;;;;;5089705;28;20047;-85
2021/07/08 04:36:26;;;;;;;6.88;3.00;;;17.30;99.90;;;;;;5079103;28;20127;-86
2021/07/08 04:39:13;;;;;;;5.25;2.83;;;17.30;99.90;;;;;;5080181;28;20406;-85
2021/07/08 04:42:01;;;;;;;4.20;2.70;;;17.30;99.90;;;;;;5079285;28;20054;-83
2021/07/08 04:44:50;;;;;;;5.95;2.38;;;17.40;99.90;;;;;;5079832;28;20048;-85
2021/07/08 04:47:38;;;;;;;8.20;2.85;;;17.40;99.90;;;;;;5078550;28;20188;-85
2021/07/08 04:50:26;;;;;;;6.38;2.72;;;17.40;99.90;;;;;;5080593;28;20326;-85
2021/07/08 04:53:15;;;;;;;7.90;2.42;;;17.50;99.90;;;;;;5095335;28;20044;-86
2021/07/08 04:56:02;;;;;;;8.32;2.67;;;17.50;99.90;;;;;;5078275;28;20040;-85
2021/07/08 04:58:49;;;;;;;5.50;2.60;;;17.50;99.90;;;;;;5079332;28;20058;-87
2021/07/08 05:01:37;;;;;;;9.88;2.72;;;17.60;99.90;;;;;;5077553;28;20126;-85
2021/07/08 05:04:24;;;;;;;5.18;2.70;;;17.70;99.90;;;;;;5078177;28;20051;-85
2021/07/08 05:07:12;;;;;;;6.78;2.80;;;17.80;99.90;;;;;;5079130;28;20044;-85
2021/07/08 05:10:00;;;;;;;6.03;2.70;;;17.80;99.90;;;;;;5092454;28;20485;-85
2021/07/08 05:12:47;;;;;;;4.57;2.55;;;17.90;99.90;;;;;;5078889;28;20066;-86
2021/07/08 05:15:36;;;;;;;5.25;2.65;;;17.80;99.90;;;;;;5078051;28;20433;-86
2021/07/08 05:18:24;;;;;;;7.93;2.67;;;17.80;99.90;;;;;;5077320;28;20047;-86
2021/07/08 05:21:12;;;;;;;4.40;2.45;;;17.90;99.90;;;;;;5077156;28;20044;-86
2021/07/08 05:24:03;;;;;;;4.15;2.40;;;18.00;99.90;;;;;;5076665;28;20044;-86
2021/07/08 05:26:51;;;;;;;5.53;2.58;;;18.10;99.90;;;;;;5076572;28;20504;-86
2021/07/08 05:29:38;;;;;;;5.90;2.60;;;18.10;99.90;;;;;;5076579;28;20050;-85
2021/07/08 05:32:25;;;;;;;5.65;2.70;;;18.10;99.90;;;;;;5077377;28;20127;-85
2021/07/08 05:35:14;;;;;;;6.75;2.53;;;18.10;99.90;;;;;;5078181;28;20519;-86
2021/07/08 05:38:01;;;;;;;6.72;2.92;;;18.10;99.90;;;;;;5092365;28;20036;-86
2021/07/08 05:40:48;;;;;;;9.05;3.22;;;18.00;99.90;;;;;;5078275;28;20048;-86
2021/07/08 05:43:35;;;;;;;7.13;2.97;;;17.90;99.90;;;;;;5077617;28;20513;-85
2021/07/08 05:46:22;;;;;;;6.55;3.40;;;17.80;99.90;;;;;;5077970;28;20040;-85
2021/07/08 05:49:09;;;;;;;8.85;3.50;;;17.80;99.90;;;;;;5077590;28;20048;-86
2021/07/08 05:51:58;;;;;;;4.80;3.10;;;17.80;99.90;;;;;;5091712;28;20145;-85
2021/07/08 05:54:45;;;;;;;7.43;2.92;;;18.00;99.90;;;;;;5077357;28;20409;-87
2021/07/08 05:57:32;;;;;;;12.18;3.15;;;18.20;99.90;;;;;;5077050;28;20040;-85
2021/07/08 06:00:20;;;;;;;7.30;3.17;;;18.50;99.90;;;;;;5091687;28;20052;-85
2021/07/08 06:03:07;;;;;;;9.07;3.30;;;18.70;99.90;;;;;;5091059;28;20428;-86
2021/07/08 06:05:54;;;;;;;8.52;2.80;;;18.80;99.90;;;;;;5077379;28;20127;-87
2021/07/08 06:08:44;;;;;;;9.27;3.17;;;18.90;99.90;;;;;;5076626;28;20048;-85
2021/07/08 06:11:31;;;;;;;7.90;3.30;;;19.10;99.90;;;;;;5078260;28;20416;-86
2021/07/08 06:14:18;;;;;;;7.35;3.13;;;19.20;99.90;;;;;;5090620;28;20048;-86
2021/07/08 06:17:07;;;;;;;6.40;3.20;;;19.10;99.90;;;;;;5076799;28;20354;-86
2021/07/08 06:19:54;;;;;;;8.40;3.40;;;19.30;99.90;;;;;;5091684;28;20043;-86
2021/07/08 06:22:41;;;;;;;7.28;3.00;;;19.40;99.90;;;;;;5076946;28;20044;-87
2021/07/08 06:25:31;;;;;;;10.50;3.50;;;19.60;99.90;;;;;;5079227;28;20117;-86
2021/07/08 06:28:18;;;;;;;8.65;3.33;;;19.60;99.90;;;;;;5080884;28;20052;-86
2021/07/08 06:31:06;;;;;;;6.70;3.08;;;19.70;99.90;;;;;;5081147;28;20044;-86
2021/07/08 06:33:53;;;;;;;6.68;2.90;;;19.70;99.90;;;;;;5080437;28;20040;-85
2021/07/08 06:36:40;;;;;;;7.60;3.00;;;19.60;99.90;;;;;;5081112;28;20040;-87
2021/07/08 06:39:27;;;;;;;9.38;3.13;;;19.40;99.90;;;;;;5079792;28;20116;-86
2021/07/08 06:42:15;;;;;;;7.28;3.08;;;19.30;99.90;;;;;;5080782;28;20134;-85
2021/07/08 06:45:03;;;;;;;6.85;3.08;;;19.60;99.90;;;;;;5081970;28;20052;-85
2021/07/08 06:47:51;;;;;;;5.07;2.85;;;19.70;99.90;;;;;;5082044;28;20044;-85
2021/07/08 06:50:41;;;;;;;9.30;3.03;;;19.90;99.90;;;;;;5080782;28;20513;-86
2021/07/08 06:53:28;;;;;;;6.63;2.92;;;19.80;99.90;;;;;;5080046;28;20574;-85
2021/07/08 06:56:15;;;;;;;6.10;2.88;;;19.60;99.90;;;;;;5081046;28;20040;-86
2021/07/08 06:59:04;;;;;;;6.20;3.03;;;19.80;99.90;;;;;;5095123;28;20055;-86
2021/07/08 07:01:51;;;;;;;10.68;3.35;;;19.90;99.90;;;;;;5080494;28;20040;-86
2021/07/08 07:04:38;;;;;;;6.53;3.10;;;19.60;99.90;;;;;;5081233;28;20412;-85
2021/07/08 07:07:25;;;;;;;5.57;2.67;;;19.80;99.90;;;;;;5081832;28;20079;-86
2021/07/08 07:10:12;;;;;;;8.23;2.97;;;20.00;99.90;;;;;;5080703;28;20577;-86
2021/07/08 07:13:00;;;;;;;9.57;2.92;;;20.00;99.90;;;;;;5080174;28;20040;-85
2021/07/08 07:15:49;;;;;;;5.15;2.80;;;20.10;99.90;;;;;;5078877;28;20040;-85
2021/07/08 07:18:39;;;;;;;7.85;2.65;;;20.00;99.90;;;;;;5079898;28;20100;-86
2021/07/08 07:21:27;;;;;;;13.00;2.90;;;20.30;99.90;;;;;;5080175;28;20527;-85
2021/07/08 07:24:14;;;;;;;6.20;3.10;;;20.20;99.90;;;;;;5079277;28;20044;-86
2021/07/08 07:27:01;;;;;;;5.50;2.40;;;20.50;99.90;;;;;;5079105;28;20032;-86
2021/07/08 07:29:48;;;;;;;8.23;2.95;;;20.70;99.90;;;;;;5079544;28;20048;-87
2021/07/08 07:32:36;;;;;;;6.38;2.65;;;20.80;99.90;;;;;;5079730;28;20487;-85
2021/07/08 07:35:24;;;;;;;7.60;2.65;;;20.80;99.90;;;;;;5094173;28;20131;-85
2021/07/08 07:38:11;;;;;;;6.78;2.70;;;20.90;99.90;;;;;;5079941;28;20040;-85
2021/07/08 07:40:59;;;;;;;9.90;2.63;;;21.00;99.90;;;;;;5080597;28;20147;-86
2021/07/08 07:43:47;;;;;;;5.65;2.58;;;21.10;99.90;;;;;;5080017;28;20050;-85
2021/07/08 07:46:35;;;;;;;6.57;2.83;;;21.10;99.90;;;;;;5094011;28;20414;-85
2021/07/08 07:49:24;;;;;;;6.53;2.75;;;21.10;99.90;;;;;;5079877;28;20048;-86
2021/07/08 07:52:13;;;;;;;6.55;2.63;;;21.00;99.90;;;;;;5095759;28;20175;-86
2021/07/08 07:55:01;;;;;;;6.75;2.55;;;21.00;99.90;;;;;;5079725;28;20048;-85
2021/07/08 07:57:48;;;;;;;6.63;2.80;;;21.00;99.90;;;;;;5079111;28;20119;-86
2021/07/08 08:00:36;;;;;;;8.13;2.38;;;20.90;99.90;;;;;;5079860;28;20044;-87
2021/07/08 08:03:23;;;;;;;7.32;3.05;;;21.00;99.90;;;;;;5080084;28;20044;-85
2021/07/08 08:09:17;;;;;;;5.95;2.45;;;20.80;99.90;;;;;;5096014;28;20036;-87
2021/07/08 08:12:05;;;;;;;10.88;2.70;;;21.00;99.90;;;;;;5081532;28;20046;-86
2021/07/08 08:14:53;;;;;;;11.75;3.28;;;21.10;99.90;;;;;;5081050;28;20044;-87
2021/07/08 08:17:40;;;;;;;4.95;2.42;;;21.30;99.90;;;;;;5079263;28;20037;-87
2021/07/08 08:20:32;;;;;;;6.03;2.50;;;21.40;99.90;;;;;;5081126;28;20044;-86
2021/07/08 08:23:21;;;;;;;6.65;2.83;;;21.30;99.90;;;;;;5080153;28;20090;-86
2021/07/08 08:26:08;;;;;;;8.45;3.08;;;21.50;99.90;;;;;;5080887;28;20051;-87
2021/07/08 08:28:55;;;;;;;9.02;2.90;;;21.50;99.90;;;;;;5079277;28;20133;-86
2021/07/08 08:31:42;;;;;;;6.22;2.72;;;21.50;99.90;;;;;;5081517;28;20048;-87
2021/07/08 08:34:30;;;;;;;10.50;3.15;;;21.60;99.90;;;;;;5081216;28;20044;-88
2021/07/08 08:37:17;;;;;;;5.43;2.90;;;21.80;99.90;;;;;;5095011;28;20528;-87
2021/07/08 08:40:07;;;;;;;5.60;2.88;;;22.00;99.90;;;;;;5080882;28;20040;-87
2021/07/08 08:42:54;;;;;;;6.10;3.13;;;21.70;99.90;;;;;;5080629;28;20457;-86
2021/07/08 08:45:41;;;;;;;6.75;3.13;;;21.60;99.90;;;;;;5080554;28;20428;-87
2021/07/08 08:48:29;;;;;;;8.32;2.83;;;21.50;99.90;;;;;;5079947;28;20055;-85
2021/07/08 08:51:17;;;;;;;8.15;3.25;;;21.50;99.90;;;;;;5081256;28;20058;-87
2021/07/08 08:54:04;;;;;;;7.32;2.47;;;21.40;99.90;;;;;;5080864;28;20123;-86
2021/07/08 08:56:52;;;;;;;10.27;3.08;;;21.40;99.90;;;;;;5096077;28;20040;-85
2021/07/08 08:59:39;;;;;;;6.82;3.08;;;21.60;99.90;;;;;;5080415;28;20173;-86
2021/07/08 09:02:26;;;;;;;8.10;3.13;;;21.70;99.90;;;;;;5080402;28;20146;-86
2021/07/08 09:05:18;;;;;;;11.18;3.08;;;21.80;99.90;;;;;;5079466;28;20052;-84
2021/07/08 09:08:15;;;;;;;6.53;2.80;;;21.60;99.90;;;;;;5078076;28;20040;-86
2021/07/08 09:11:08;;;;;;;5.38;2.33;;;21.60;99.90;;;;;;5079646;28;20097;-85
2021/07/08 09:14:01;;;;;;;6.30;2.50;;;21.70;99.90;;;;;;5072487;28;20067;-85
2021/07/08 09:16:48;;;;;;;5.15;2.67;;;21.80;99.90;;;;;;5058436;28;20040;-86
2021/07/08 09:19:37;;;;;;;10.35;2.67;;;21.90;99.90;;;;;;5057665;28;20231;-85
2021/07/08 09:22:29;;;;;;;8.70;3.05;;;22.10;99.90;;;;;;5058544;28;20066;-86
2021/07/08 09:25:25;;;;;;;5.85;2.63;;;22.20;99.90;;;;;;5058500;28;20087;-86
2021/07/08 09:28:21;;;;;;;8.25;2.85;;;22.10;99.90;;;;;;5072126;28;20045;-86
2021/07/08 09:31:09;;;;;;;7.43;2.63;;;22.20;99.90;;;;;;5057686;28;20040;-85
2021/07/08 09:33:57;;;;;;;7.32;2.80;;;22.20;99.90;;;;;;5089869;28;20044;-86
2021/07/08 09:36:45;;;;;;;6.57;2.65;;;22.20;99.90;;;;;;5092225;28;20044;-86
2021/07/08 09:39:34;;;;;;;6.07;2.58;;;22.20;99.90;;;;;;5078530;28;20170;-86
2021/07/08 09:42:33;;;;;;;9.50;2.92;;;22.40;99.90;;;;;;5091757;28;20051;-86
2021/07/08 09:45:21;;;;;;;8.38;2.78;;;22.50;99.90;;;;;;5092790;28;20048;-86
2021/07/08 09:48:18;;;;;;;6.15;2.25;;;22.60;99.90;;;;;;5078096;28;20036;-85
2021/07/08 09:51:06;;;;;;;7.28;2.30;;;22.60;99.90;;;;;;5079192;28;20207;-85
2021/07/08 09:54:03;;;;;;;4.82;1.80;;;22.80;99.90;;;;;;5077911;28;20052;-85
2021/07/08 09:56:54;;;;;;;9.30;2.40;;;22.80;99.20;;;;;;5078242;28;20150;-86
2021/07/08 09:59:41;;;;;;;5.57;1.90;;;22.60;99.90;;;;;;5093364;28;20036;-85
2021/07/08 10:02:30;;;;;;;4.32;1.60;;;22.50;99.80;;;;;;5081501;28;20036;-86
2021/07/08 10:05:21;;;;;;;6.95;2.30;;;22.60;99.90;;;;;;5082334;28;20463;-85
2021/07/08 10:08:09;;;;;;;4.97;1.92;;;22.80;99.90;;;;;;5099086;28;20250;-87
2021/07/08 10:10:56;;;;;;;6.38;1.80;;;22.80;99.70;;;;;;5104166;28;20097;-86
2021/07/08 10:13:44;;;;;;;4.47;1.90;;;23.00;99.70;;;;;;5089647;28;20111;-89
2021/07/08 10:16:32;;;;;;;4.20;1.48;;;23.10;99.70;;;;;;5088417;28;20048;-85
2021/07/08 10:19:21;;;;;;;4.60;1.77;;;23.20;99.90;;;;;;5088536;28;20048;-86
2021/07/08 10:22:10;;;;;;;4.30;1.75;;;23.30;99.90;;;;;;5089784;28;20050;-88
2021/07/08 10:24:57;;;;;;;5.22;1.80;;;23.30;98.30;;;;;;5103595;28;20067;-86
2021/07/08 10:27:45;;;;;;;4.78;1.65;;;23.30;98.70;;;;;;5085177;28;20155;-86
2021/07/08 10:30:35;;;;;;;3.78;1.90;;;23.40;97.80;;;;;;5081208;28;20230;-86
2021/07/08 10:33:35;;;;;;;5.55;1.70;;;23.50;98.50;;;;;;5084484;28;20181;-85
2021/07/08 10:36:30;;;;;;;5.88;1.50;;;23.60;97.10;;;;;;5095417;28;20047;-87
2021/07/08 10:39:20;;;;;;;4.43;1.75;;;23.50;96.30;;;;;;5080553;28;20040;-85
2021/07/08 10:42:09;;;;;;;3.75;1.42;;;23.40;97.00;;;;;;5080545;28;20044;-86
2021/07/08 10:44:56;;;;;;;5.22;1.58;;;23.40;97.30;;;;;;5080010;28;20048;-86
2021/07/08 10:47:43;;;;;;;4.82;1.55;;;23.40;97.00;;;;;;5079998;28;20057;-86
2021/07/08 10:50:40;;;;;;;4.70;1.65;;;23.70;96.90;;;;;;5081348;28;20131;-85
2021/07/08 10:53:32;;;;;;;4.10;1.40;;;23.70;96.00;;;;;;5080238;28;20050;-86
2021/07/08 10:56:31;;;;;;;2.95;1.35;;;23.80;95.50;;;;;;5080227;28;20036;-85
2021/07/08 10:59:18;;;;;;;2.97;1.20;;;23.80;95.20;;;;;;5080312;28;20044;-84
2021/07/08 11:02:05;;;;;;;2.58;1.30;;;23.80;95.10;;;;;;5095638;28;20513;-86
2021/07/08 11:04:53;;;;;;;3.33;1.40;;;23.80;94.90;;;;;;5095067;28;20417;-85
2021/07/08 11:07:47;;;;;;;3.88;1.38;;;23.90;95.20;;;;;;5080362;28;20166;-85
2021/07/08 11:10:35;;;;;;;5.20;1.60;;;23.90;96.60;;;;;;5079797;28;20055;-85
2021/07/08 11:13:27;;;;;;;3.85;1.23;;;23.90;95.30;;;;;;5095758;28;20044;-85
2021/07/08 11:16:38;;;;;;;3.92;1.73;;;23.90;94.50;;;;;;5094121;28;20061;-86
2021/07/08 11:19:36;;;;;;;5.20;1.67;;;23.80;94.60;;;;;;5093305;28;20509;-85
2021/07/08 11:22:32;;;;;;;4.03;1.48;;;23.90;94.90;;;;;;5093348;28;20040;-86
2021/07/08 11:25:40;;;;;;;5.28;1.40;;;23.90;96.00;;;;;;5095485;28;20036;-85
2021/07/08 11:28:30;;;;;;;6.80;1.70;;;24.20;94.90;;;;;;5093974;28;20032;-86
2021/07/08 11:31:33;;;;;;;3.25;1.17;;;24.30;94.10;;;;;;5093969;28;20515;-85
2021/07/08 11:34:20;;;;;;;3.90;1.30;;;24.30;93.10;;;;;;5060590;28;20588;-85
2021/07/08 11:37:14;;;;;;;2.35;1.02;;;24.40;92.90;;;;;;5074904;28;20080;-84
2021/07/08 11:40:05;;;;;;;2.90;1.20;;;24.50;92.90;;;;;;5059338;28;20051;-83
2021/07/08 11:42:53;;;;;;;3.65;1.13;;;24.60;93.40;;;;;;5059938;28;20124;-86
2021/07/08 11:45:42;;;;;;;5.15;1.38;;;24.80;94.90;;;;;;5060542;28;20119;-86
2021/07/08 11:48:31;;;;;;;3.60;1.20;;;25.00;94.60;;;;;;5072854;28;20067;-85
2021/07/08 11:51:20;;;;;;;3.95;1.20;;;25.10;93.50;;;;;;5059093;28;20098;-86
2021/07/08 11:54:09;;;;;;;2.95;1.23;;;25.10;94.90;;;;;;5058685;28;20471;-86
2021/07/08 11:56:56;;;;;;;4.40;1.53;;;25.30;95.00;;;;;;5074788;28;20040;-86
2021/07/08 11:59:46;;;;;;;6.65;1.30;;;25.40;94.00;;;;;;5060066;28;20032;-85
2021/07/08 12:02:36;;;;;;;2.67;1.17;;;25.50;92.20;;;;;;5073279;28;20124;-86
2021/07/08 12:05:23;;;;;;;5.53;1.30;;;25.00;91.60;;;;;;5073027;28;20131;-85
2021/07/08 12:08:20;;;;;;;3.47;1.30;;;25.00;91.60;;;;;;5072831;28;20049;-86
2021/07/08 12:11:10;;;;;;;4.78;1.50;;;24.80;92.80;;;;;;5058745;28;20421;-85
2021/07/08 12:13:59;;;;;;;4.80;1.27;;;24.90;92.60;;;;;;5058986;28;20124;-86
2021/07/08 12:16:47;;;;;;;6.57;1.40;;;24.80;91.50;;;;;;5073434;28;20429;-85
2021/07/08 12:19:36;;;;;;;2.88;1.23;;;24.90;92.20;;;;;;5072393;28;20234;-87
2021/07/08 12:22:23;;;;;;;2.25;1.20;;;24.90;92.70;;;;;;5072754;28;20131;-85
2021/07/08 12:25:14;;;;;;;4.18;1.40;;;25.00;93.40;;;;;;5072057;28;20174;-86
2021/07/08 12:28:01;;;;;;;2.75;1.20;;;25.30;94.10;;;;;;5073356;28;20488;-85
2021/07/08 12:30:49;;;;;;;2.90;1.20;;;25.60;94.30;;;;;;5071937;28;20072;-85
2021/07/08 12:33:36;;;;;;;2.55;1.10;;;25.70;92.20;;;;;;5088972;28;20047;-85
2021/07/08 12:36:25;;;;;;;4.65;1.52;;;25.80;92.30;;;;;;5094117;28;20044;-85
2021/07/08 12:39:22;;;;;;;4.10;1.40;;;25.80;92.10;;;;;;5078912;28;20051;-85
2021/07/08 12:42:20;;;;;;;6.38;1.52;;;25.70;92.80;;;;;;5079059;28;20048;-85
2021/07/08 12:45:10;;;;;;;3.25;1.40;;;25.40;92.00;;;;;;5093417;28;20142;-85
2021/07/08 12:47:57;;;;;;;6.32;1.35;;;25.40;93.40;;;;;;5078304;28;20094;-84
2021/07/08 12:50:45;;;;;;;4.68;1.23;;;25.50;92.30;;;;;;5079400;28;20040;-85
2021/07/08 12:53:34;;;;;;;2.58;1.20;;;25.70;92.80;;;;;;5092592;28;20150;-85
2021/07/08 12:56:23;;;;;;;5.78;1.23;;;26.00;92.40;;;;;;5093147;28;20183;-85
2021/07/08 12:59:17;;;;;;;3.78;1.45;;;26.20;92.20;;;;;;5078191;28;20462;-85
2021/07/08 13:02:05;;;;;;;6.00;1.50;;;26.60;93.10;;;;;;5078655;28;20119;-84
2021/07/08 13:04:59;;;;;;;4.88;1.30;;;26.70;92.90;;;;;;5077014;28;20150;-86
2021/07/08 13:07:48;;;;;;;3.97;1.27;;;26.90;92.90;;;;;;5077896;28;20073;-85
2021/07/08 13:10:42;;;;;;;2.85;1.00;;;26.80;91.60;;;;;;5078192;28;20182;-85
2021/07/08 13:13:33;;;;;;;2.95;1.10;;;27.00;91.00;;;;;;5078789;28;20119;-84
2021/07/08 13:16:22;;;;;;;3.83;1.20;;;27.20;92.20;;;;;;5076941;28;20051;-84
2021/07/08 13:19:15;;;;;;;2.55;1.10;;;27.20;88.10;;;;;;5077338;28;20040;-85
2021/07/08 13:22:21;;;;;;;2.83;1.10;;;27.50;87.50;;;;;;5077874;28;20048;-86
2021/07/08 13:25:14;;;;;;;4.78;1.40;;;27.40;86.40;;;;;;5077299;28;20655;-85
2021/07/08 13:28:18;;;;;;;3.70;1.20;;;27.50;86.60;;;;;;5076229;28;20413;-86
2021/07/08 13:31:07;;;;;;;3.17;1.20;;;27.90;88.40;;;;;;5077209;28;20122;-85
2021/07/08 13:34:00;;;;;;;4.35;1.30;;;28.40;90.40;;;;;;5076530;28;20087;-86
2021/07/08 13:37:21;;;;;;;3.35;1.20;;;28.90;90.30;;;;;;5080669;28;20044;-85
2021/07/08 13:40:09;;;;;;;2.05;0.93;;;29.50;88.00;;;;;;5078812;28;20120;-85
2021/07/08 13:43:11;;;;;;;3.30;0.90;;;29.90;87.20;;;;;;5077157;28;20048;-86
2021/07/08 13:46:07;;;;;;;5.07;1.05;;;30.20;85.00;;;;;;5077603;28;20420;-85
2021/07/08 13:49:05;;;;;;;3.75;1.27;;;30.20;82.10;;;;;;5077393;28;20040;-85
2021/07/08 13:51:54;;;;;;;2.92;1.10;;;30.00;81.70;;;;;;5077081;28;20048;-85
2021/07/08 13:54:44;;;;;;;;;;;29.20;79.70;;;;;;5092288;28;20425;-84
2021/07/08 13:57:34;;;;;;;3.38;1.20;;;28.90;80.90;;;;;;5076712;28;20435;-84
2021/07/08 14:00:22;;;;;;;2.58;1.20;;;28.80;81.10;;;;;;5076948;28;20070;-84
2021/07/08 14:03:09;;;;;;;2.63;1.10;;;28.80;84.60;;;;;;5077135;28;20060;-84
2021/07/08 14:05:56;;;;;;;2.35;0.90;;;28.10;82.40;;;;;;5077842;28;20079;-84
2021/07/08 14:08:43;;;;;;;4.07;1.10;;;28.00;82.20;;;;;;5078457;28;20122;-84
2021/07/08 14:11:31;;;;;;;3.20;1.02;;;27.80;82.30;;;;;;5078078;28;20123;-84
2021/07/08 14:14:18;;;;;;;4.28;1.08;;;27.60;82.30;;;;;;5077189;28;20048;-83
2021/07/08 14:17:07;;;;;;;2.92;1.10;;;27.50;81.30;;;;;;5077221;28;20040;-85
2021/07/08 14:19:55;;;;;;;2.53;0.93;;;27.50;82.30;;;;;;5076251;28;20129;-85
2021/07/08 14:22:42;;;;;;;3.53;1.00;;;27.30;82.60;;;;;;5076784;28;20516;-86
2021/07/08 14:25:29;;;;;;;4.95;1.25;;;27.30;84.60;;;;;;5076658;28;20036;-84
2021/07/08 14:28:16;;;;;;;3.25;1.23;;;27.40;82.40;;;;;;5075867;28;20104;-86
2021/07/08 14:31:04;;;;;;;4.60;1.10;;;26.90;81.90;;;;;;5076796;28;20120;-85
2021/07/08 14:33:53;;;;;;;3.08;1.00;;;26.80;83.30;;;;;;5077053;28;20097;-85
2021/07/08 14:36:40;;;;;;;3.47;1.27;;;26.80;84.60;;;;;;5076052;28;20568;-85
2021/07/08 14:39:27;;;;;;;2.85;1.25;;;26.90;85.30;;;;;;5076560;28;20125;-85
2021/07/08 14:42:25;;;;;;;2.90;0.98;;;26.80;85.10;;;;;;5077462;28;20048;-85